Terminal Aerodrome Forecast
Issued by NWS Louisville, KY

Home | Current Version | Previous Version | Text Only | Print | Product List | Glossary On
Versions: 1 2 3 4 5 6 7 8 9 10 11 12 13 14 15
836
FTUS43 KLMK 272323
TAFSDF
TAF
KSDF 272323Z 2800/2906 20006KT P6SM SKC
     FM281300 22008KT P6SM SCT040 BKN200
     FM281700 26010KT 6SM -SHRA BKN022
     FM282300 31008KT P6SM VCSH BKN035=

USA.gov is the U.S. government's official web portal to all federal, state and local government web resources and services.